sensor_id;sensor_type;location;lat;lon;timestamp;pressure;altitude;pressure_sealevel;temperature;humidity
59829;BME280;45708;51.848;107.620;2023-05-16T00:01:43;94098.81;;;12.63;32.49
59829;BME280;45708;51.848;107.620;2023-05-16T00:06:44;94110.94;;;11.90;32.62
59829;BME280;45708;51.848;107.620;2023-05-16T00:11:45;94110.13;;;12.54;30.88
59829;BME280;45708;51.848;107.620;2023-05-16T00:16:46;94104.03;;;12.53;31.03
59829;BME280;45708;51.848;107.620;2023-05-16T00:21:47;94112.63;;;13.85;29.57
59829;BME280;45708;51.848;107.620;2023-05-16T00:26:48;94113.19;;;14.28;28.85
59829;BME280;45708;51.848;107.620;2023-05-16T00:31:49;94112.56;;;15.23;27.48
59829;BME280;45708;51.848;107.620;2023-05-16T00:36:50;94114.44;;;15.81;26.89
59829;BME280;45708;51.848;107.620;2023-05-16T00:41:51;94113.06;;;17.25;25.82
59829;BME280;45708;51.848;107.620;2023-05-16T00:46:53;94119.06;;;18.03;24.98
59829;BME280;45708;51.848;107.620;2023-05-16T00:51:54;94109.34;;;17.45;25.04
59829;BME280;45708;51.848;107.620;2023-05-16T00:56:56;94123.16;;;16.99;24.91
59829;BME280;45708;51.848;107.620;2023-05-16T01:01:57;94133.22;;;18.03;24.42
59829;BME280;45708;51.848;107.620;2023-05-16T01:06:58;94116.06;;;18.42;23.84
59829;BME280;45708;51.848;107.620;2023-05-16T01:12:10;94122.16;;;19.26;23.38
59829;BME280;45708;51.848;107.620;2023-05-16T01:17:43;94126.84;;;19.62;23.27
59829;BME280;45708;51.848;107.620;2023-05-16T01:27:46;94121.25;;;18.52;22.43
59829;BME280;45708;51.848;107.620;2023-05-16T01:32:47;94132.94;;;18.23;22.11
59829;BME280;45708;51.848;107.620;2023-05-16T01:37:54;94124.38;;;18.40;21.96
59829;BME280;45708;51.848;107.620;2023-05-16T01:43:04;94129.69;;;18.27;22.21
59829;BME280;45708;51.848;107.620;2023-05-16T01:48:12;94127.75;;;18.83;22.04
59829;BME280;45708;51.848;107.620;2023-05-16T01:53:21;94136.91;;;18.45;22.02
59829;BME280;45708;51.848;107.620;2023-05-16T01:58:28;94134.69;;;18.84;21.30
59829;BME280;45708;51.848;107.620;2023-05-16T02:03:30;94129.53;;;19.02;21.05
59829;BME280;45708;51.848;107.620;2023-05-16T02:08:31;94118.19;;;18.77;21.23
59829;BME280;45708;51.848;107.620;2023-05-16T02:13:32;94119.44;;;18.99;21.14
59829;BME280;45708;51.848;107.620;2023-05-16T02:18:33;94115.53;;;18.77;21.05
59829;BME280;45708;51.848;107.620;2023-05-16T02:23:34;94117.88;;;18.46;21.40
59829;BME280;45708;51.848;107.620;2023-05-16T02:28:35;94112.03;;;18.44;21.84
59829;BME280;45708;51.848;107.620;2023-05-16T02:33:36;94121.88;;;18.11;21.93
59829;BME280;45708;51.848;107.620;2023-05-16T02:38:36;94121.22;;;18.01;22.04
59829;BME280;45708;51.848;107.620;2023-05-16T02:43:37;94123.84;;;17.82;22.23
59829;BME280;45708;51.848;107.620;2023-05-16T02:48:38;94127.41;;;17.06;22.71
59829;BME280;45708;51.848;107.620;2023-05-16T02:53:39;94132.69;;;15.49;24.60
59829;BME280;45708;51.848;107.620;2023-05-16T02:58:40;94133.44;;;14.44;26.04
59829;BME280;45708;51.848;107.620;2023-05-16T03:03:41;94128.56;;;14.06;25.92
59829;BME280;45708;51.848;107.620;2023-05-16T03:08:42;94127.44;;;13.66;26.89
59829;BME280;45708;51.848;107.620;2023-05-16T03:13:43;94126.03;;;13.48;27.24
59829;BME280;45708;51.848;107.620;2023-05-16T03:18:44;94126.84;;;13.54;27.79
59829;BME280;45708;51.848;107.620;2023-05-16T03:23:44;94125.34;;;13.83;26.37
59829;BME280;45708;51.848;107.620;2023-05-16T03:28:45;94126.44;;;14.13;24.82
59829;BME280;45708;51.848;107.620;2023-05-16T03:33:46;94124.59;;;14.13;24.77
59829;BME280;45708;51.848;107.620;2023-05-16T03:38:47;94109.97;;;14.21;24.41
59829;BME280;45708;51.848;107.620;2023-05-16T03:43:48;94114.78;;;14.59;24.49
59829;BME280;45708;51.848;107.620;2023-05-16T03:48:49;94109.75;;;14.63;24.37
59829;BME280;45708;51.848;107.620;2023-05-16T03:53:49;94119.84;;;14.66;22.49
59829;BME280;45708;51.848;107.620;2023-05-16T03:58:50;94115.31;;;14.61;22.45
59829;BME280;45708;51.848;107.620;2023-05-16T04:03:51;94110.56;;;14.43;22.28
59829;BME280;45708;51.848;107.620;2023-05-16T04:08:52;94117.44;;;14.75;22.37
59829;BME280;45708;51.848;107.620;2023-05-16T04:13:53;94120.59;;;14.97;21.90
59829;BME280;45708;51.848;107.620;2023-05-16T04:18:54;94122.69;;;15.15;21.97
59829;BME280;45708;51.848;107.620;2023-05-16T04:23:55;94118.41;;;15.19;21.75
59829;BME280;45708;51.848;107.620;2023-05-16T04:28:55;94098.78;;;14.95;21.61
59829;BME280;45708;51.848;107.620;2023-05-16T04:33:57;94110.25;;;14.90;21.41
59829;BME280;45708;51.848;107.620;2023-05-16T04:38:57;94113.19;;;14.89;21.50
59829;BME280;45708;51.848;107.620;2023-05-16T04:44:02;94120.88;;;14.90;20.99
59829;BME280;45708;51.848;107.620;2023-05-16T04:49:03;94122.19;;;14.98;21.81
59829;BME280;45708;51.848;107.620;2023-05-16T04:54:04;94114.22;;;15.03;22.12
59829;BME280;45708;51.848;107.620;2023-05-16T04:59:05;94106.81;;;14.85;22.45
59829;BME280;45708;51.848;107.620;2023-05-16T05:04:06;94095.38;;;14.74;22.82
59829;BME280;45708;51.848;107.620;2023-05-16T05:09:06;94093.78;;;14.73;22.99
59829;BME280;45708;51.848;107.620;2023-05-16T05:14:07;94099.31;;;15.02;23.31
59829;BME280;45708;51.848;107.620;2023-05-16T05:19:08;94094.53;;;14.94;23.72
59829;BME280;45708;51.848;107.620;2023-05-16T05:24:09;94108.34;;;15.01;23.15
59829;BME280;45708;51.848;107.620;2023-05-16T05:29:10;94100.09;;;15.08;22.30
59829;BME280;45708;51.848;107.620;2023-05-16T05:34:10;94091.81;;;15.19;22.45
59829;BME280;45708;51.848;107.620;2023-05-16T05:39:11;94087.41;;;15.54;21.71
59829;BME280;45708;51.848;107.620;2023-05-16T05:44:12;94098.06;;;15.54;21.83
59829;BME280;45708;51.848;107.620;2023-05-16T05:49:13;94093.94;;;15.23;21.46
59829;BME280;45708;51.848;107.620;2023-05-16T05:54:14;94099.00;;;15.24;21.50
59829;BME280;45708;51.848;107.620;2023-05-16T05:59:14;94099.25;;;15.28;21.50
59829;BME280;45708;51.848;107.620;2023-05-16T06:04:15;94092.28;;;15.37;21.47
59829;BME280;45708;51.848;107.620;2023-05-16T06:09:16;94092.78;;;15.39;21.52
59829;BME280;45708;51.848;107.620;2023-05-16T06:14:17;94090.13;;;15.39;21.21
59829;BME280;45708;51.848;107.620;2023-05-16T06:19:18;94092.19;;;15.57;20.49
59829;BME280;45708;51.848;107.620;2023-05-16T06:24:19;94099.09;;;15.58;20.89
59829;BME280;45708;51.848;107.620;2023-05-16T06:29:19;94093.25;;;15.61;20.82
59829;BME280;45708;51.848;107.620;2023-05-16T06:34:20;94103.25;;;15.85;20.64
59829;BME280;45708;51.848;107.620;2023-05-16T06:39:22;94092.09;;;15.77;20.90
59829;BME280;45708;51.848;107.620;2023-05-16T06:44:23;94090.94;;;15.94;20.32
59829;BME280;45708;51.848;107.620;2023-05-16T06:49:24;94095.75;;;15.92;20.03
59829;BME280;45708;51.848;107.620;2023-05-16T06:54:25;94077.06;;;16.02;20.45
59829;BME280;45708;51.848;107.620;2023-05-16T06:59:25;94087.94;;;16.39;19.84
59829;BME280;45708;51.848;107.620;2023-05-16T07:04:26;94090.88;;;16.38;19.90
59829;BME280;45708;51.848;107.620;2023-05-16T07:09:27;94083.69;;;16.38;19.51
59829;BME280;45708;51.848;107.620;2023-05-16T07:14:28;94076.50;;;16.05;19.08
59829;BME280;45708;51.848;107.620;2023-05-16T07:19:29;94085.81;;;15.53;19.57
59829;BME280;45708;51.848;107.620;2023-05-16T07:24:32;94071.44;;;15.54;19.29
59829;BME280;45708;51.848;107.620;2023-05-16T07:29:33;94084.75;;;15.64;18.90
59829;BME280;45708;51.848;107.620;2023-05-16T07:34:34;94083.28;;;15.87;19.29
59829;BME280;45708;51.848;107.620;2023-05-16T07:39:35;94028.59;;;15.50;19.10
59829;BME280;45708;51.848;107.620;2023-05-16T07:44:36;94083.59;;;15.75;19.23
59829;BME280;45708;51.848;107.620;2023-05-16T07:49:36;94087.97;;;15.51;19.37
59829;BME280;45708;51.848;107.620;2023-05-16T07:54:37;94085.25;;;15.56;19.63
59829;BME280;45708;51.848;107.620;2023-05-16T07:59:38;94100.00;;;15.93;19.30
59829;BME280;45708;51.848;107.620;2023-05-16T08:04:39;94093.44;;;15.75;19.29
59829;BME280;45708;51.848;107.620;2023-05-16T08:09:40;94096.94;;;15.70;19.36
59829;BME280;45708;51.848;107.620;2023-05-16T08:14:41;94099.53;;;15.86;19.26
59829;BME280;45708;51.848;107.620;2023-05-16T08:19:41;94085.28;;;16.00;18.84
59829;BME280;45708;51.848;107.620;2023-05-16T08:24:42;94088.31;;;15.89;19.53
59829;BME280;45708;51.848;107.620;2023-05-16T08:29:43;94076.91;;;15.78;19.30
59829;BME280;45708;51.848;107.620;2023-05-16T08:34:44;94098.84;;;15.65;19.82
59829;BME280;45708;51.848;107.620;2023-05-16T08:39:45;94091.66;;;15.60;19.54
59829;BME280;45708;51.848;107.620;2023-05-16T08:44:45;94093.22;;;15.71;19.68
59829;BME280;45708;51.848;107.620;2023-05-16T08:49:47;94096.53;;;15.38;19.82
59829;BME280;45708;51.848;107.620;2023-05-16T08:54:49;94094.03;;;15.57;20.43
59829;BME280;45708;51.848;107.620;2023-05-16T08:59:50;94098.34;;;15.47;19.95
59829;BME280;45708;51.848;107.620;2023-05-16T09:04:53;94098.84;;;15.55;20.79
59829;BME280;45708;51.848;107.620;2023-05-16T09:09:56;94095.38;;;15.59;20.62
59829;BME280;45708;51.848;107.620;2023-05-16T09:14:57;94092.19;;;15.57;20.85
59829;BME280;45708;51.848;107.620;2023-05-16T09:19:58;94096.56;;;15.92;20.53
59829;BME280;45708;51.848;107.620;2023-05-16T09:24:59;94092.53;;;15.95;20.75
59829;BME280;45708;51.848;107.620;2023-05-16T09:29:59;94098.28;;;15.68;20.38
59829;BME280;45708;51.848;107.620;2023-05-16T09:35:00;94092.75;;;15.49;20.59
59829;BME280;45708;51.848;107.620;2023-05-16T09:40:02;94092.72;;;15.54;20.68
59829;BME280;45708;51.848;107.620;2023-05-16T09:45:03;94095.50;;;15.29;20.79
59829;BME280;45708;51.848;107.620;2023-05-16T09:50:04;94099.81;;;15.14;21.14
59829;BME280;45708;51.848;107.620;2023-05-16T09:55:07;94096.09;;;15.10;21.51
59829;BME280;45708;51.848;107.620;2023-05-16T10:00:11;94104.59;;;15.12;21.10
59829;BME280;45708;51.848;107.620;2023-05-16T10:05:12;94108.84;;;15.13;21.31
59829;BME280;45708;51.848;107.620;2023-05-16T10:10:13;94112.09;;;15.05;21.11
59829;BME280;45708;51.848;107.620;2023-05-16T10:15:14;94100.41;;;14.86;21.08
59829;BME280;45708;51.848;107.620;2023-05-16T10:20:15;94112.38;;;14.88;21.53
59829;BME280;45708;51.848;107.620;2023-05-16T10:30:26;94114.25;;;14.57;21.80
59829;BME280;45708;51.848;107.620;2023-05-16T10:35:27;94110.53;;;14.38;21.54
59829;BME280;45708;51.848;107.620;2023-05-16T10:40:28;94127.56;;;14.42;22.04
59829;BME280;45708;51.848;107.620;2023-05-16T10:45:30;94107.88;;;14.28;22.17
59829;BME280;45708;51.848;107.620;2023-05-16T10:50:31;94115.31;;;14.26;22.53
59829;BME280;45708;51.848;107.620;2023-05-16T10:55:32;94112.91;;;14.14;22.16
59829;BME280;45708;51.848;107.620;2023-05-16T11:00:33;94127.50;;;14.12;22.37
59829;BME280;45708;51.848;107.620;2023-05-16T11:05:34;94128.03;;;14.04;22.59
59829;BME280;45708;51.848;107.620;2023-05-16T11:10:35;94122.69;;;13.93;22.85
59829;BME280;45708;51.848;107.620;2023-05-16T11:15:36;94129.06;;;13.87;22.64
59829;BME280;45708;51.848;107.620;2023-05-16T11:20:38;94137.53;;;13.74;23.13
59829;BME280;45708;51.848;107.620;2023-05-16T11:25:39;94144.38;;;13.60;23.11
59829;BME280;45708;51.848;107.620;2023-05-16T11:30:42;94146.47;;;13.48;23.29
59829;BME280;45708;51.848;107.620;2023-05-16T11:35:58;94152.75;;;13.31;23.47
59829;BME280;45708;51.848;107.620;2023-05-16T11:41:06;94147.31;;;13.11;23.81
59829;BME280;45708;51.848;107.620;2023-05-16T11:46:11;94161.16;;;12.81;24.22
59829;BME280;45708;51.848;107.620;2023-05-16T11:51:11;94157.81;;;12.54;24.49
59829;BME280;45708;51.848;107.620;2023-05-16T11:56:12;94164.28;;;12.36;25.13
59829;BME280;45708;51.848;107.620;2023-05-16T12:01:13;94169.44;;;12.21;25.36
59829;BME280;45708;51.848;107.620;2023-05-16T12:06:14;94177.19;;;12.00;25.26
59829;BME280;45708;51.848;107.620;2023-05-16T12:11:15;94177.53;;;11.82;25.88
59829;BME280;45708;51.848;107.620;2023-05-16T12:16:16;94180.50;;;11.64;25.78
59829;BME280;45708;51.848;107.620;2023-05-16T12:21:18;94195.63;;;11.46;26.26
59829;BME280;45708;51.848;107.620;2023-05-16T12:26:24;94181.34;;;11.25;26.67
59829;BME280;45708;51.848;107.620;2023-05-16T12:31:25;94196.75;;;11.12;27.00
59829;BME280;45708;51.848;107.620;2023-05-16T12:36:31;94209.19;;;10.94;27.06
59829;BME280;45708;51.848;107.620;2023-05-16T12:41:32;94210.47;;;10.75;27.60
59829;BME280;45708;51.848;107.620;2023-05-16T12:46:32;94226.50;;;10.69;27.99
59829;BME280;45708;51.848;107.620;2023-05-16T12:51:33;94227.47;;;10.62;28.45
59829;BME280;45708;51.848;107.620;2023-05-16T12:56:34;94242.97;;;10.59;28.31
59829;BME280;45708;51.848;107.620;2023-05-16T13:01:35;94246.56;;;10.53;28.64
59829;BME280;45708;51.848;107.620;2023-05-16T13:06:36;94252.00;;;10.46;28.83
59829;BME280;45708;51.848;107.620;2023-05-16T13:11:37;94260.16;;;10.45;28.67
59829;BME280;45708;51.848;107.620;2023-05-16T13:16:38;94267.78;;;10.41;28.92
59829;BME280;45708;51.848;107.620;2023-05-16T13:21:39;94283.50;;;10.36;28.95
59829;BME280;45708;51.848;107.620;2023-05-16T13:26:39;94282.53;;;10.25;29.44
59829;BME280;45708;51.848;107.620;2023-05-16T13:31:40;94283.56;;;10.24;29.78
59829;BME280;45708;51.848;107.620;2023-05-16T13:36:41;94284.84;;;10.22;29.73
59829;BME280;45708;51.848;107.620;2023-05-16T13:41:42;94286.69;;;10.21;29.41
59829;BME280;45708;51.848;107.620;2023-05-16T13:46:43;94283.66;;;10.18;29.42
59829;BME280;45708;51.848;107.620;2023-05-16T13:51:44;94280.22;;;10.17;29.80
59829;BME280;45708;51.848;107.620;2023-05-16T13:56:44;94296.44;;;10.09;29.61
59829;BME280;45708;51.848;107.620;2023-05-16T14:01:46;94306.19;;;10.09;30.10
59829;BME280;45708;51.848;107.620;2023-05-16T14:06:46;94301.72;;;10.09;29.69
59829;BME280;45708;51.848;107.620;2023-05-16T14:11:47;94312.59;;;10.13;30.36
59829;BME280;45708;51.848;107.620;2023-05-16T14:16:48;94311.41;;;10.20;29.71
59829;BME280;45708;51.848;107.620;2023-05-16T14:21:49;94307.41;;;10.29;29.89
59829;BME280;45708;51.848;107.620;2023-05-16T14:26:50;94298.53;;;10.35;29.83
59829;BME280;45708;51.848;107.620;2023-05-16T14:31:51;94295.06;;;10.47;29.37
59829;BME280;45708;51.848;107.620;2023-05-16T14:36:52;94305.47;;;10.53;30.74
59829;BME280;45708;51.848;107.620;2023-05-16T14:41:53;94317.69;;;10.43;30.89
59829;BME280;45708;51.848;107.620;2023-05-16T14:46:53;94314.78;;;10.27;31.80
59829;BME280;45708;51.848;107.620;2023-05-16T14:51:54;94319.34;;;10.20;31.47
59829;BME280;45708;51.848;107.620;2023-05-16T14:56:55;94312.13;;;10.16;31.29
59829;BME280;45708;51.848;107.620;2023-05-16T15:01:56;94322.81;;;10.09;31.64
59829;BME280;45708;51.848;107.620;2023-05-16T15:06:56;94327.22;;;9.92;32.37
59829;BME280;45708;51.848;107.620;2023-05-16T15:11:57;94308.72;;;9.63;32.85
59829;BME280;45708;51.848;107.620;2023-05-16T15:16:59;94328.97;;;9.74;32.98
59829;BME280;45708;51.848;107.620;2023-05-16T15:21:59;94345.84;;;9.73;33.10
59829;BME280;45708;51.848;107.620;2023-05-16T15:27:00;94346.88;;;9.72;33.18
59829;BME280;45708;51.848;107.620;2023-05-16T15:32:04;94336.00;;;9.69;33.28
59829;BME280;45708;51.848;107.620;2023-05-16T15:37:05;94337.94;;;9.73;33.08
59829;BME280;45708;51.848;107.620;2023-05-16T15:42:06;94331.63;;;9.74;32.70
59829;BME280;45708;51.848;107.620;2023-05-16T15:47:07;94317.28;;;9.59;33.51
59829;BME280;45708;51.848;107.620;2023-05-16T15:52:08;94346.31;;;9.70;33.56
59829;BME280;45708;51.848;107.620;2023-05-16T15:57:09;94336.09;;;9.74;33.52
59829;BME280;45708;51.848;107.620;2023-05-16T16:02:10;94346.97;;;9.77;33.58
59829;BME280;45708;51.848;107.620;2023-05-16T16:07:11;94355.81;;;9.71;33.71
59829;BME280;45708;51.848;107.620;2023-05-16T16:12:13;94337.16;;;9.61;33.69
59829;BME280;45708;51.848;107.620;2023-05-16T16:17:13;94349.88;;;9.64;33.72
59829;BME280;45708;51.848;107.620;2023-05-16T16:22:14;94353.66;;;9.68;34.01
59829;BME280;45708;51.848;107.620;2023-05-16T16:27:15;94364.19;;;9.68;33.58
59829;BME280;45708;51.848;107.620;2023-05-16T16:32:16;94353.41;;;9.58;34.28
59829;BME280;45708;51.848;107.620;2023-05-16T16:37:17;94373.38;;;9.54;34.35
59829;BME280;45708;51.848;107.620;2023-05-16T16:42:18;94373.38;;;9.54;34.81
59829;BME280;45708;51.848;107.620;2023-05-16T16:47:20;94365.34;;;9.49;35.34
59829;BME280;45708;51.848;107.620;2023-05-16T16:52:21;94360.63;;;9.39;35.37
59829;BME280;45708;51.848;107.620;2023-05-16T16:57:22;94359.03;;;9.38;35.07
59829;BME280;45708;51.848;107.620;2023-05-16T17:02:23;94355.47;;;9.33;35.08
59829;BME280;45708;51.848;107.620;2023-05-16T17:07:23;94360.28;;;9.36;34.87
59829;BME280;45708;51.848;107.620;2023-05-16T17:12:24;94360.19;;;9.42;34.75
59829;BME280;45708;51.848;107.620;2023-05-16T17:17:25;94346.31;;;9.47;35.74
59829;BME280;45708;51.848;107.620;2023-05-16T17:22:26;94348.28;;;9.63;35.50
59829;BME280;45708;51.848;107.620;2023-05-16T17:27:27;94371.28;;;9.80;35.77
59829;BME280;45708;51.848;107.620;2023-05-16T17:32:27;94367.97;;;9.61;36.13
59829;BME280;45708;51.848;107.620;2023-05-16T17:37:29;94387.38;;;9.43;36.64
59829;BME280;45708;51.848;107.620;2023-05-16T17:42:29;94366.22;;;9.20;36.78
59829;BME280;45708;51.848;107.620;2023-05-16T17:47:30;94379.63;;;9.06;37.28
59829;BME280;45708;51.848;107.620;2023-05-16T17:52:31;94369.88;;;8.95;37.25
59829;BME280;45708;51.848;107.620;2023-05-16T17:57:32;94367.56;;;8.87;37.51
59829;BME280;45708;51.848;107.620;2023-05-16T18:02:33;94354.72;;;8.79;37.28
59829;BME280;45708;51.848;107.620;2023-05-16T18:07:34;94340.84;;;8.72;38.16
59829;BME280;45708;51.848;107.620;2023-05-16T18:12:34;94350.47;;;8.78;37.24
59829;BME280;45708;51.848;107.620;2023-05-16T18:17:35;94344.06;;;8.74;37.28
59829;BME280;45708;51.848;107.620;2023-05-16T18:22:36;94352.22;;;8.84;37.23
59829;BME280;45708;51.848;107.620;2023-05-16T18:27:38;94356.13;;;8.93;37.76
59829;BME280;45708;51.848;107.620;2023-05-16T18:32:39;94330.03;;;9.03;38.62
59829;BME280;45708;51.848;107.620;2023-05-16T18:37:39;94338.84;;;9.21;39.14
59829;BME280;45708;51.848;107.620;2023-05-16T18:42:40;94335.66;;;9.19;39.23
59829;BME280;45708;51.848;107.620;2023-05-16T18:47:41;94336.22;;;9.21;39.38
59829;BME280;45708;51.848;107.620;2023-05-16T18:52:42;94323.66;;;9.23;39.83
59829;BME280;45708;51.848;107.620;2023-05-16T18:57:43;94321.44;;;9.31;39.87
59829;BME280;45708;51.848;107.620;2023-05-16T19:02:43;94315.94;;;9.33;39.88
59829;BME280;45708;51.848;107.620;2023-05-16T19:07:44;94291.31;;;8.92;41.11
59829;BME280;45708;51.848;107.620;2023-05-16T19:12:45;94293.81;;;8.87;41.20
59829;BME280;45708;51.848;107.620;2023-05-16T19:17:46;94294.63;;;8.88;41.69
59829;BME280;45708;51.848;107.620;2023-05-16T19:22:47;94276.88;;;8.83;40.78
59829;BME280;45708;51.848;107.620;2023-05-16T19:27:47;94283.38;;;8.80;40.47
59829;BME280;45708;51.848;107.620;2023-05-16T19:32:48;94291.41;;;8.74;40.32
59829;BME280;45708;51.848;107.620;2023-05-16T19:37:49;94321.97;;;8.75;40.08
59829;BME280;45708;51.848;107.620;2023-05-16T19:42:50;94311.38;;;8.51;41.08
59829;BME280;45708;51.848;107.620;2023-05-16T19:47:51;94299.38;;;7.41;49.47
59829;BME280;45708;51.848;107.620;2023-05-16T19:52:51;94286.41;;;6.84;54.75
59829;BME280;45708;51.848;107.620;2023-05-16T19:57:52;94301.38;;;7.02;54.28
59829;BME280;45708;51.848;107.620;2023-05-16T20:02:53;94306.13;;;7.12;55.15
59829;BME280;45708;51.848;107.620;2023-05-16T20:07:54;94308.13;;;6.91;56.24
59829;BME280;45708;51.848;107.620;2023-05-16T20:12:55;94296.97;;;6.46;55.28
59829;BME280;45708;51.848;107.620;2023-05-16T20:17:56;94303.28;;;6.00;56.86
59829;BME280;45708;51.848;107.620;2023-05-16T20:22:57;94308.47;;;6.14;56.93
59829;BME280;45708;51.848;107.620;2023-05-16T20:27:58;94284.31;;;6.36;56.07
59829;BME280;45708;51.848;107.620;2023-05-16T20:32:58;94307.75;;;6.63;57.19
59829;BME280;45708;51.848;107.620;2023-05-16T20:37:59;94314.13;;;6.74;57.06
59829;BME280;45708;51.848;107.620;2023-05-16T20:43:00;94306.00;;;6.82;57.11
59829;BME280;45708;51.848;107.620;2023-05-16T20:48:01;94302.03;;;6.72;57.82
59829;BME280;45708;51.848;107.620;2023-05-16T20:53:02;94318.66;;;6.60;58.24
59829;BME280;45708;51.848;107.620;2023-05-16T20:58:03;94326.06;;;6.38;58.20
59829;BME280;45708;51.848;107.620;2023-05-16T21:03:03;94319.97;;;6.13;58.52
59829;BME280;45708;51.848;107.620;2023-05-16T21:08:04;94303.66;;;6.10;58.58
59829;BME280;45708;51.848;107.620;2023-05-16T21:13:05;94303.19;;;6.20;58.35
59829;BME280;45708;51.848;107.620;2023-05-16T21:18:06;94312.03;;;6.26;58.84
59829;BME280;45708;51.848;107.620;2023-05-16T21:23:06;94309.69;;;6.11;58.66
59829;BME280;45708;51.848;107.620;2023-05-16T21:28:07;94312.38;;;6.04;59.34
59829;BME280;45708;51.848;107.620;2023-05-16T21:33:08;94322.25;;;6.02;58.54
59829;BME280;45708;51.848;107.620;2023-05-16T21:38:09;94353.31;;;6.05;57.82
59829;BME280;45708;51.848;107.620;2023-05-16T21:43:09;94355.16;;;5.92;57.66
59829;BME280;45708;51.848;107.620;2023-05-16T21:48:11;94352.16;;;5.82;57.12
59829;BME280;45708;51.848;107.620;2023-05-16T21:53:11;94360.84;;;5.82;57.22
59829;BME280;45708;51.848;107.620;2023-05-16T21:58:12;94341.00;;;5.28;55.90
59829;BME280;45708;51.848;107.620;2023-05-16T22:03:13;94338.34;;;5.48;54.05
59829;BME280;45708;51.848;107.620;2023-05-16T22:08:14;94309.84;;;5.71;53.24
59829;BME280;45708;51.848;107.620;2023-05-16T22:13:15;94323.50;;;5.93;53.12
59829;BME280;45708;51.848;107.620;2023-05-16T22:18:15;94330.25;;;6.21;52.76
59829;BME280;45708;51.848;107.620;2023-05-16T22:23:16;94314.72;;;7.44;50.50
59829;BME280;45708;51.848;107.620;2023-05-16T22:28:17;94299.66;;;7.32;50.86
59829;BME280;45708;51.848;107.620;2023-05-16T22:33:18;94308.50;;;9.06;47.63
59829;BME280;45708;51.848;107.620;2023-05-16T22:38:18;94310.38;;;10.33;44.49
59829;BME280;45708;51.848;107.620;2023-05-16T22:43:19;94300.69;;;10.39;43.22
59829;BME280;45708;51.848;107.620;2023-05-16T22:48:20;94306.25;;;10.82;43.54
59829;BME280;45708;51.848;107.620;2023-05-16T22:53:21;94301.97;;;10.98;42.38
59829;BME280;45708;51.848;107.620;2023-05-16T22:58:22;94307.50;;;10.63;43.24
59829;BME280;45708;51.848;107.620;2023-05-16T23:03:22;94299.13;;;10.83;43.10
59829;BME280;45708;51.848;107.620;2023-05-16T23:08:23;94299.81;;;11.45;42.41
59829;BME280;45708;51.848;107.620;2023-05-16T23:13:26;94292.06;;;10.88;43.21
59829;BME280;45708;51.848;107.620;2023-05-16T23:18:27;94293.56;;;11.18;42.49
59829;BME280;45708;51.848;107.620;2023-05-16T23:23:28;94302.66;;;12.48;39.88
59829;BME280;45708;51.848;107.620;2023-05-16T23:28:29;94300.84;;;12.80;39.45
59829;BME280;45708;51.848;107.620;2023-05-16T23:33:29;94296.34;;;12.54;39.46
59829;BME280;45708;51.848;107.620;2023-05-16T23:38:30;94292.25;;;13.00;38.01
59829;BME280;45708;51.848;107.620;2023-05-16T23:43:31;94297.03;;;13.73;37.36
59829;BME280;45708;51.848;107.620;2023-05-16T23:48:32;94260.44;;;13.80;36.58
59829;BME280;45708;51.848;107.620;2023-05-16T23:53:33;94283.22;;;14.28;36.40
59829;BME280;45708;51.848;107.620;2023-05-16T23:58:34;94283.88;;;14.86;35.63
